sensor_id;sensor_type;location;lat;lon;timestamp;P1;durP1;ratioP1;P2;durP2;ratioP2
76167;SDS011;64927;48.214;16.378;2023-05-10T00:00:55;2.92;;;2.05;;
76167;SDS011;64927;48.214;16.378;2023-05-10T00:03:24;3.67;;;2.03;;
76167;SDS011;64927;48.214;16.378;2023-05-10T00:05:50;4.63;;;2.40;;
76167;SDS011;64927;48.214;16.378;2023-05-10T00:08:15;2.95;;;2.10;;
76167;SDS011;64927;48.214;16.378;2023-05-10T00:10:44;5.00;;;2.35;;
76167;SDS011;64927;48.214;16.378;2023-05-10T00:13:09;3.95;;;2.35;;
76167;SDS011;64927;48.214;16.378;2023-05-10T00:15:37;3.42;;;2.17;;
76167;SDS011;64927;48.214;16.378;2023-05-10T00:18:03;3.38;;;2.42;;
76167;SDS011;64927;48.214;16.378;2023-05-10T00:20:31;2.67;;;2.05;;
76167;SDS011;64927;48.214;16.378;2023-05-10T00:22:57;4.72;;;1.88;;
76167;SDS011;64927;48.214;16.378;2023-05-10T00:25:22;3.38;;;2.20;;
76167;SDS011;64927;48.214;16.378;2023-05-10T00:27:50;2.80;;;1.77;;
76167;SDS011;64927;48.214;16.378;2023-05-10T00:30:19;5.53;;;2.33;;
76167;SDS011;64927;48.214;16.378;2023-05-10T00:32:44;4.78;;;2.40;;
76167;SDS011;64927;48.214;16.378;2023-05-10T00:35:13;4.45;;;1.70;;
76167;SDS011;64927;48.214;16.378;2023-05-10T00:37:38;3.38;;;1.98;;
76167;SDS011;64927;48.214;16.378;2023-05-10T00:40:05;3.33;;;2.10;;
76167;SDS011;64927;48.214;16.378;2023-05-10T00:42:31;4.07;;;1.90;;
76167;SDS011;64927;48.214;16.378;2023-05-10T00:44:56;3.78;;;2.38;;
76167;SDS011;64927;48.214;16.378;2023-05-10T00:47:22;3.83;;;2.55;;
76167;SDS011;64927;48.214;16.378;2023-05-10T00:49:48;5.45;;;2.20;;
76167;SDS011;64927;48.214;16.378;2023-05-10T00:52:14;3.30;;;2.10;;
76167;SDS011;64927;48.214;16.378;2023-05-10T00:54:40;5.15;;;2.40;;
76167;SDS011;64927;48.214;16.378;2023-05-10T00:57:06;4.13;;;2.58;;
76167;SDS011;64927;48.214;16.378;2023-05-10T00:59:32;3.88;;;2.20;;
76167;SDS011;64927;48.214;16.378;2023-05-10T01:01:58;4.28;;;2.00;;
76167;SDS011;64927;48.214;16.378;2023-05-10T01:04:24;3.33;;;2.15;;
76167;SDS011;64927;48.214;16.378;2023-05-10T01:06:52;3.28;;;2.10;;
76167;SDS011;64927;48.214;16.378;2023-05-10T01:09:19;5.50;;;2.25;;
76167;SDS011;64927;48.214;16.378;2023-05-10T01:11:48;3.55;;;2.20;;
76167;SDS011;64927;48.214;16.378;2023-05-10T01:14:14;6.20;;;2.60;;
76167;SDS011;64927;48.214;16.378;2023-05-10T01:16:42;3.70;;;2.47;;
76167;SDS011;64927;48.214;16.378;2023-05-10T01:19:17;4.10;;;2.25;;
76167;SDS011;64927;48.214;16.378;2023-05-10T01:21:58;8.68;;;2.83;;
76167;SDS011;64927;48.214;16.378;2023-05-10T01:25:11;5.00;;;2.10;;
76167;SDS011;64927;48.214;16.378;2023-05-10T01:33:29;8.63;;;2.17;;
76167;SDS011;64927;48.214;16.378;2023-05-10T01:36:15;4.60;;;2.00;;
76167;SDS011;64927;48.214;16.378;2023-05-10T01:38:51;5.95;;;2.90;;
76167;SDS011;64927;48.214;16.378;2023-05-10T01:43:55;3.72;;;2.58;;
76167;SDS011;64927;48.214;16.378;2023-05-10T01:46:36;5.90;;;2.65;;
76167;SDS011;64927;48.214;16.378;2023-05-10T01:49:09;4.45;;;2.85;;
76167;SDS011;64927;48.214;16.378;2023-05-10T01:51:50;6.85;;;2.85;;
76167;SDS011;64927;48.214;16.378;2023-05-10T01:54:22;4.97;;;2.67;;
76167;SDS011;64927;48.214;16.378;2023-05-10T01:56:52;4.55;;;2.55;;
76167;SDS011;64927;48.214;16.378;2023-05-10T01:59:23;4.50;;;2.55;;
76167;SDS011;64927;48.214;16.378;2023-05-10T02:01:54;4.50;;;2.97;;
76167;SDS011;64927;48.214;16.378;2023-05-10T02:04:24;3.67;;;2.17;;
76167;SDS011;64927;48.214;16.378;2023-05-10T02:06:52;6.43;;;2.67;;
76167;SDS011;64927;48.214;16.378;2023-05-10T02:09:20;4.30;;;2.60;;
76167;SDS011;64927;48.214;16.378;2023-05-10T02:11:48;4.57;;;2.70;;
76167;SDS011;64927;48.214;16.378;2023-05-10T02:14:18;4.43;;;2.35;;
76167;SDS011;64927;48.214;16.378;2023-05-10T02:16:45;4.30;;;2.38;;
76167;SDS011;64927;48.214;16.378;2023-05-10T02:19:12;5.20;;;2.67;;
76167;SDS011;64927;48.214;16.378;2023-05-10T02:21:39;8.18;;;3.58;;
76167;SDS011;64927;48.214;16.378;2023-05-10T02:24:10;6.13;;;2.70;;
76167;SDS011;64927;48.214;16.378;2023-05-10T02:26:36;3.90;;;2.42;;
76167;SDS011;64927;48.214;16.378;2023-05-10T02:29:04;6.32;;;2.90;;
76167;SDS011;64927;48.214;16.378;2023-05-10T02:31:32;3.75;;;2.30;;
76167;SDS011;64927;48.214;16.378;2023-05-10T02:33:59;3.88;;;2.60;;
76167;SDS011;64927;48.214;16.378;2023-05-10T02:36:26;4.97;;;2.72;;
76167;SDS011;64927;48.214;16.378;2023-05-10T02:38:52;7.32;;;3.20;;
76167;SDS011;64927;48.214;16.378;2023-05-10T02:41:19;5.75;;;3.05;;
76167;SDS011;64927;48.214;16.378;2023-05-10T02:43:50;4.70;;;2.95;;
76167;SDS011;64927;48.214;16.378;2023-05-10T02:46:18;5.82;;;2.78;;
76167;SDS011;64927;48.214;16.378;2023-05-10T02:48:44;3.00;;;2.20;;
76167;SDS011;64927;48.214;16.378;2023-05-10T02:51:10;3.88;;;2.90;;
76167;SDS011;64927;48.214;16.378;2023-05-10T02:53:42;4.00;;;2.65;;
76167;SDS011;64927;48.214;16.378;2023-05-10T02:56:15;4.45;;;2.88;;
76167;SDS011;64927;48.214;16.378;2023-05-10T02:59:01;3.33;;;2.58;;
76167;SDS011;64927;48.214;16.378;2023-05-10T03:01:26;5.22;;;2.95;;
76167;SDS011;64927;48.214;16.378;2023-05-10T03:03:52;5.60;;;3.22;;
76167;SDS011;64927;48.214;16.378;2023-05-10T03:06:18;6.78;;;3.78;;
76167;SDS011;64927;48.214;16.378;2023-05-10T03:08:44;8.40;;;3.55;;
76167;SDS011;64927;48.214;16.378;2023-05-10T03:11:23;3.40;;;2.67;;
76167;SDS011;64927;48.214;16.378;2023-05-10T03:19:51;4.38;;;2.38;;
76167;SDS011;64927;48.214;16.378;2023-05-10T03:22:27;4.82;;;2.90;;
76167;SDS011;64927;48.214;16.378;2023-05-10T03:24:59;5.50;;;3.22;;
76167;SDS011;64927;48.214;16.378;2023-05-10T03:27:30;7.07;;;3.50;;
76167;SDS011;64927;48.214;16.378;2023-05-10T03:29:59;5.70;;;3.13;;
76167;SDS011;64927;48.214;16.378;2023-05-10T03:32:29;4.00;;;2.75;;
76167;SDS011;64927;48.214;16.378;2023-05-10T03:34:56;7.35;;;3.47;;
76167;SDS011;64927;48.214;16.378;2023-05-10T03:37:22;4.60;;;2.60;;
76167;SDS011;64927;48.214;16.378;2023-05-10T03:39:48;10.43;;;3.28;;
76167;SDS011;64927;48.214;16.378;2023-05-10T03:42:13;4.20;;;2.80;;
76167;SDS011;64927;48.214;16.378;2023-05-10T03:44:39;5.32;;;2.83;;
76167;SDS011;64927;48.214;16.378;2023-05-10T03:47:05;4.15;;;3.13;;
76167;SDS011;64927;48.214;16.378;2023-05-10T03:49:31;8.52;;;3.50;;
76167;SDS011;64927;48.214;16.378;2023-05-10T03:51:57;5.13;;;3.38;;
76167;SDS011;64927;48.214;16.378;2023-05-10T03:54:22;3.75;;;3.00;;
76167;SDS011;64927;48.214;16.378;2023-05-10T03:56:48;5.00;;;2.80;;
76167;SDS011;64927;48.214;16.378;2023-05-10T03:59:16;6.43;;;3.28;;
76167;SDS011;64927;48.214;16.378;2023-05-10T04:01:41;6.07;;;3.10;;
76167;SDS011;64927;48.214;16.378;2023-05-10T04:04:07;4.40;;;2.92;;
76167;SDS011;64927;48.214;16.378;2023-05-10T04:06:33;7.18;;;3.13;;
76167;SDS011;64927;48.214;16.378;2023-05-10T04:08:58;4.88;;;3.30;;
76167;SDS011;64927;48.214;16.378;2023-05-10T04:11:26;4.53;;;3.08;;
76167;SDS011;64927;48.214;16.378;2023-05-10T04:13:52;3.08;;;2.78;;
76167;SDS011;64927;48.214;16.378;2023-05-10T04:16:18;4.68;;;3.25;;
76167;SDS011;64927;48.214;16.378;2023-05-10T04:18:44;6.07;;;3.08;;
76167;SDS011;64927;48.214;16.378;2023-05-10T04:21:13;6.05;;;3.10;;
76167;SDS011;64927;48.214;16.378;2023-05-10T04:23:39;4.47;;;2.88;;
76167;SDS011;64927;48.214;16.378;2023-05-10T04:26:05;5.55;;;3.13;;
76167;SDS011;64927;48.214;16.378;2023-05-10T04:28:31;5.00;;;3.20;;
76167;SDS011;64927;48.214;16.378;2023-05-10T04:31:00;4.47;;;3.03;;
76167;SDS011;64927;48.214;16.378;2023-05-10T04:33:33;6.43;;;3.10;;
76167;SDS011;64927;48.214;16.378;2023-05-10T04:35:59;6.13;;;3.05;;
76167;SDS011;64927;48.214;16.378;2023-05-10T04:38:25;5.28;;;2.97;;
76167;SDS011;64927;48.214;16.378;2023-05-10T04:40:53;4.43;;;2.90;;
76167;SDS011;64927;48.214;16.378;2023-05-10T04:43:19;5.78;;;3.20;;
76167;SDS011;64927;48.214;16.378;2023-05-10T04:45:45;4.25;;;3.03;;
76167;SDS011;64927;48.214;16.378;2023-05-10T04:48:11;4.07;;;3.08;;
76167;SDS011;64927;48.214;16.378;2023-05-10T04:50:37;6.93;;;3.78;;
76167;SDS011;64927;48.214;16.378;2023-05-10T04:53:03;8.50;;;3.10;;
76167;SDS011;64927;48.214;16.378;2023-05-10T04:55:29;5.32;;;3.17;;
76167;SDS011;64927;48.214;16.378;2023-05-10T04:57:55;5.55;;;3.33;;
76167;SDS011;64927;48.214;16.378;2023-05-10T05:00:22;7.75;;;3.53;;
76167;SDS011;64927;48.214;16.378;2023-05-10T05:02:48;6.78;;;3.50;;
76167;SDS011;64927;48.214;16.378;2023-05-10T05:05:14;4.45;;;2.95;;
76167;SDS011;64927;48.214;16.378;2023-05-10T05:07:40;4.80;;;3.90;;
76167;SDS011;64927;48.214;16.378;2023-05-10T05:10:06;4.80;;;4.05;;
76167;SDS011;64927;48.214;16.378;2023-05-10T05:12:32;7.53;;;3.72;;
76167;SDS011;64927;48.214;16.378;2023-05-10T05:14:58;6.80;;;3.40;;
76167;SDS011;64927;48.214;16.378;2023-05-10T05:17:23;4.82;;;3.30;;
76167;SDS011;64927;48.214;16.378;2023-05-10T05:19:51;5.95;;;3.63;;
76167;SDS011;64927;48.214;16.378;2023-05-10T05:22:17;6.25;;;3.25;;
76167;SDS011;64927;48.214;16.378;2023-05-10T05:24:52;6.07;;;3.37;;
76167;SDS011;64927;48.214;16.378;2023-05-10T05:27:21;9.02;;;3.42;;
76167;SDS011;64927;48.214;16.378;2023-05-10T05:29:55;7.15;;;3.97;;
76167;SDS011;64927;48.214;16.378;2023-05-10T05:32:21;6.63;;;4.13;;
76167;SDS011;64927;48.214;16.378;2023-05-10T05:34:47;9.88;;;3.78;;
76167;SDS011;64927;48.214;16.378;2023-05-10T05:37:17;9.02;;;4.00;;
76167;SDS011;64927;48.214;16.378;2023-05-10T05:39:44;4.22;;;3.15;;
76167;SDS011;64927;48.214;16.378;2023-05-10T05:42:10;7.38;;;3.42;;
76167;SDS011;64927;48.214;16.378;2023-05-10T05:44:36;5.63;;;3.55;;
76167;SDS011;64927;48.214;16.378;2023-05-10T05:47:05;3.95;;;2.72;;
76167;SDS011;64927;48.214;16.378;2023-05-10T05:49:34;4.35;;;3.15;;
76167;SDS011;64927;48.214;16.378;2023-05-10T05:52:00;13.82;;;3.38;;
76167;SDS011;64927;48.214;16.378;2023-05-10T05:54:26;5.13;;;2.95;;
76167;SDS011;64927;48.214;16.378;2023-05-10T05:56:56;10.98;;;3.70;;
76167;SDS011;64927;48.214;16.378;2023-05-10T05:59:22;8.35;;;3.28;;
76167;SDS011;64927;48.214;16.378;2023-05-10T06:01:50;6.03;;;3.20;;
76167;SDS011;64927;48.214;16.378;2023-05-10T06:04:16;5.47;;;3.50;;
76167;SDS011;64927;48.214;16.378;2023-05-10T06:06:44;5.22;;;3.00;;
76167;SDS011;64927;48.214;16.378;2023-05-10T06:09:12;6.00;;;3.38;;
76167;SDS011;64927;48.214;16.378;2023-05-10T06:11:38;4.68;;;3.17;;
76167;SDS011;64927;48.214;16.378;2023-05-10T06:14:04;5.75;;;3.20;;
76167;SDS011;64927;48.214;16.378;2023-05-10T06:16:31;4.95;;;3.45;;
76167;SDS011;64927;48.214;16.378;2023-05-10T06:18:57;7.65;;;3.53;;
76167;SDS011;64927;48.214;16.378;2023-05-10T06:21:25;4.90;;;2.88;;
76167;SDS011;64927;48.214;16.378;2023-05-10T06:23:51;4.82;;;3.22;;
76167;SDS011;64927;48.214;16.378;2023-05-10T06:26:17;4.75;;;2.92;;
76167;SDS011;64927;48.214;16.378;2023-05-10T06:28:42;6.65;;;4.10;;
76167;SDS011;64927;48.214;16.378;2023-05-10T06:31:08;8.45;;;3.58;;
76167;SDS011;64927;48.214;16.378;2023-05-10T06:33:33;5.13;;;3.10;;
76167;SDS011;64927;48.214;16.378;2023-05-10T06:35:59;6.90;;;3.50;;
76167;SDS011;64927;48.214;16.378;2023-05-10T06:38:26;5.03;;;3.47;;
76167;SDS011;64927;48.214;16.378;2023-05-10T06:40:52;9.23;;;3.38;;
76167;SDS011;64927;48.214;16.378;2023-05-10T06:43:17;4.93;;;2.95;;
76167;SDS011;64927;48.214;16.378;2023-05-10T06:45:43;6.28;;;3.33;;
76167;SDS011;64927;48.214;16.378;2023-05-10T06:48:08;5.35;;;3.55;;
76167;SDS011;64927;48.214;16.378;2023-05-10T06:50:34;4.22;;;3.53;;
76167;SDS011;64927;48.214;16.378;2023-05-10T06:53:00;4.13;;;3.25;;
76167;SDS011;64927;48.214;16.378;2023-05-10T06:55:29;7.07;;;3.58;;
76167;SDS011;64927;48.214;16.378;2023-05-10T06:57:55;3.95;;;3.05;;
76167;SDS011;64927;48.214;16.378;2023-05-10T07:00:20;8.07;;;3.55;;
76167;SDS011;64927;48.214;16.378;2023-05-10T07:02:46;6.93;;;3.15;;
76167;SDS011;64927;48.214;16.378;2023-05-10T07:05:12;6.22;;;3.70;;
76167;SDS011;64927;48.214;16.378;2023-05-10T07:07:38;9.20;;;3.08;;
76167;SDS011;64927;48.214;16.378;2023-05-10T07:10:06;5.65;;;3.28;;
76167;SDS011;64927;48.214;16.378;2023-05-10T07:12:32;8.32;;;4.07;;
76167;SDS011;64927;48.214;16.378;2023-05-10T07:14:58;6.38;;;3.50;;
76167;SDS011;64927;48.214;16.378;2023-05-10T07:17:26;6.20;;;3.60;;
76167;SDS011;64927;48.214;16.378;2023-05-10T07:19:52;5.35;;;3.17;;
76167;SDS011;64927;48.214;16.378;2023-05-10T07:22:17;4.85;;;3.30;;
76167;SDS011;64927;48.214;16.378;2023-05-10T07:24:43;4.15;;;3.08;;
76167;SDS011;64927;48.214;16.378;2023-05-10T07:27:09;5.65;;;3.65;;
76167;SDS011;64927;48.214;16.378;2023-05-10T07:29:37;7.82;;;3.00;;
76167;SDS011;64927;48.214;16.378;2023-05-10T07:32:03;6.10;;;3.90;;
76167;SDS011;64927;48.214;16.378;2023-05-10T07:34:29;4.38;;;3.33;;
76167;SDS011;64927;48.214;16.378;2023-05-10T07:36:57;5.05;;;3.30;;
76167;SDS011;64927;48.214;16.378;2023-05-10T07:39:23;6.55;;;4.00;;
76167;SDS011;64927;48.214;16.378;2023-05-10T07:41:51;6.90;;;3.83;;
76167;SDS011;64927;48.214;16.378;2023-05-10T07:44:19;5.45;;;3.17;;
76167;SDS011;64927;48.214;16.378;2023-05-10T07:46:45;11.45;;;4.65;;
76167;SDS011;64927;48.214;16.378;2023-05-10T07:49:11;5.43;;;3.63;;
76167;SDS011;64927;48.214;16.378;2023-05-10T07:51:37;7.07;;;3.60;;
76167;SDS011;64927;48.214;16.378;2023-05-10T07:54:02;5.65;;;3.50;;
76167;SDS011;64927;48.214;16.378;2023-05-10T07:56:29;9.93;;;3.50;;
76167;SDS011;64927;48.214;16.378;2023-05-10T07:58:57;4.65;;;3.65;;
76167;SDS011;64927;48.214;16.378;2023-05-10T08:01:25;8.95;;;3.60;;
76167;SDS011;64927;48.214;16.378;2023-05-10T08:03:51;12.90;;;3.92;;
76167;SDS011;64927;48.214;16.378;2023-05-10T08:06:18;5.82;;;3.75;;
76167;SDS011;64927;48.214;16.378;2023-05-10T08:08:48;6.15;;;4.22;;
76167;SDS011;64927;48.214;16.378;2023-05-10T08:11:18;6.28;;;3.83;;
76167;SDS011;64927;48.214;16.378;2023-05-10T08:13:45;4.50;;;3.72;;
76167;SDS011;64927;48.214;16.378;2023-05-10T08:16:11;6.65;;;3.75;;
76167;SDS011;64927;48.214;16.378;2023-05-10T08:18:37;4.72;;;3.55;;
76167;SDS011;64927;48.214;16.378;2023-05-10T08:21:03;4.70;;;3.38;;
76167;SDS011;64927;48.214;16.378;2023-05-10T08:23:32;4.45;;;3.15;;
76167;SDS011;64927;48.214;16.378;2023-05-10T08:26:00;4.25;;;3.15;;
76167;SDS011;64927;48.214;16.378;2023-05-10T08:28:31;4.63;;;3.08;;
76167;SDS011;64927;48.214;16.378;2023-05-10T08:30:56;4.15;;;3.20;;
76167;SDS011;64927;48.214;16.378;2023-05-10T08:33:22;15.15;;;3.10;;
76167;SDS011;64927;48.214;16.378;2023-05-10T08:35:48;2.50;;;2.28;;
76167;SDS011;64927;48.214;16.378;2023-05-10T08:38:13;3.97;;;3.00;;
76167;SDS011;64927;48.214;16.378;2023-05-10T08:40:41;3.92;;;2.50;;
76167;SDS011;64927;48.214;16.378;2023-05-10T08:43:09;9.20;;;3.03;;
76167;SDS011;64927;48.214;16.378;2023-05-10T08:45:39;6.38;;;3.08;;
76167;SDS011;64927;48.214;16.378;2023-05-10T08:48:10;5.97;;;2.90;;
76167;SDS011;64927;48.214;16.378;2023-05-10T08:50:37;5.13;;;2.42;;
76167;SDS011;64927;48.214;16.378;2023-05-10T08:53:10;3.88;;;2.05;;
76167;SDS011;64927;48.214;16.378;2023-05-10T08:55:38;3.97;;;2.30;;
76167;SDS011;64927;48.214;16.378;2023-05-10T08:58:05;3.05;;;2.08;;
76167;SDS011;64927;48.214;16.378;2023-05-10T09:00:31;3.03;;;2.00;;
76167;SDS011;64927;48.214;16.378;2023-05-10T09:02:58;6.00;;;2.58;;
76167;SDS011;64927;48.214;16.378;2023-05-10T09:05:24;3.83;;;1.98;;
76167;SDS011;64927;48.214;16.378;2023-05-10T09:07:50;3.25;;;1.80;;
76167;SDS011;64927;48.214;16.378;2023-05-10T09:10:16;4.40;;;2.05;;
76167;SDS011;64927;48.214;16.378;2023-05-10T09:12:47;3.38;;;1.98;;
76167;SDS011;64927;48.214;16.378;2023-05-10T09:15:17;2.95;;;2.13;;
76167;SDS011;64927;48.214;16.378;2023-05-10T09:17:44;1.90;;;1.60;;
76167;SDS011;64927;48.214;16.378;2023-05-10T09:20:10;5.15;;;1.60;;
76167;SDS011;64927;48.214;16.378;2023-05-10T09:22:36;3.38;;;1.60;;
76167;SDS011;64927;48.214;16.378;2023-05-10T09:25:03;1.90;;;1.70;;
76167;SDS011;64927;48.214;16.378;2023-05-10T09:27:33;2.65;;;1.58;;
76167;SDS011;64927;48.214;16.378;2023-05-10T09:29:59;2.35;;;1.48;;
76167;SDS011;64927;48.214;16.378;2023-05-10T09:32:47;1.88;;;1.67;;
76167;SDS011;64927;48.214;16.378;2023-05-10T09:35:16;2.10;;;1.40;;
76167;SDS011;64927;48.214;16.378;2023-05-10T09:37:44;1.27;;;1.10;;
76167;SDS011;64927;48.214;16.378;2023-05-10T09:42:54;1.63;;;1.20;;
76167;SDS011;64927;48.214;16.378;2023-05-10T09:45:20;1.35;;;1.00;;
76167;SDS011;64927;48.214;16.378;2023-05-10T09:47:49;5.45;;;1.50;;
76167;SDS011;64927;48.214;16.378;2023-05-10T09:50:15;1.65;;;1.17;;
76167;SDS011;64927;48.214;16.378;2023-05-10T09:55:20;2.03;;;1.13;;
76167;SDS011;64927;48.214;16.378;2023-05-10T09:57:49;2.35;;;1.20;;
76167;SDS011;64927;48.214;16.378;2023-05-10T10:00:23;1.33;;;1.20;;
76167;SDS011;64927;48.214;16.378;2023-05-10T10:02:56;1.98;;;1.10;;
76167;SDS011;64927;48.214;16.378;2023-05-10T10:05:35;2.55;;;1.20;;
76167;SDS011;64927;48.214;16.378;2023-05-10T10:08:04;1.75;;;1.10;;
76167;SDS011;64927;48.214;16.378;2023-05-10T10:10:31;1.42;;;1.10;;
76167;SDS011;64927;48.214;16.378;2023-05-10T10:12:58;1.23;;;0.88;;
76167;SDS011;64927;48.214;16.378;2023-05-10T10:15:27;4.88;;;1.02;;
76167;SDS011;64927;48.214;16.378;2023-05-10T10:17:53;7.35;;;1.23;;
76167;SDS011;64927;48.214;16.378;2023-05-10T10:20:22;3.35;;;1.20;;
76167;SDS011;64927;48.214;16.378;2023-05-10T10:22:48;2.75;;;1.00;;
76167;SDS011;64927;48.214;16.378;2023-05-10T10:25:19;1.30;;;1.00;;
76167;SDS011;64927;48.214;16.378;2023-05-10T10:27:54;2.88;;;0.88;;
76167;SDS011;64927;48.214;16.378;2023-05-10T10:30:42;1.40;;;0.93;;
76167;SDS011;64927;48.214;16.378;2023-05-10T10:36:03;1.55;;;1.00;;
76167;SDS011;64927;48.214;16.378;2023-05-10T10:41:32;2.83;;;1.10;;
76167;SDS011;64927;48.214;16.378;2023-05-10T10:52:41;1.85;;;1.10;;
76167;SDS011;64927;48.214;16.378;2023-05-10T11:02:59;2.88;;;1.02;;
76167;SDS011;64927;48.214;16.378;2023-05-10T11:05:50;2.50;;;1.10;;
76167;SDS011;64927;48.214;16.378;2023-05-10T11:08:29;1.23;;;1.00;;
76167;SDS011;64927;48.214;16.378;2023-05-10T11:13:28;8.15;;;1.60;;
76167;SDS011;64927;48.214;16.378;2023-05-10T11:15:55;3.20;;;1.15;;
76167;SDS011;64927;48.214;16.378;2023-05-10T11:18:28;1.80;;;1.20;;
76167;SDS011;64927;48.214;16.378;2023-05-10T11:20:56;3.40;;;1.40;;
76167;SDS011;64927;48.214;16.378;2023-05-10T11:23:31;2.17;;;1.40;;
76167;SDS011;64927;48.214;16.378;2023-05-10T11:26:13;1.92;;;1.50;;
76167;SDS011;64927;48.214;16.378;2023-05-10T11:28:46;1.92;;;1.13;;
76167;SDS011;64927;48.214;16.378;2023-05-10T11:31:13;1.77;;;1.13;;
76167;SDS011;64927;48.214;16.378;2023-05-10T11:33:47;2.80;;;1.08;;
76167;SDS011;64927;48.214;16.378;2023-05-10T11:36:16;2.17;;;1.27;;
76167;SDS011;64927;48.214;16.378;2023-05-10T11:38:46;1.83;;;1.00;;
76167;SDS011;64927;48.214;16.378;2023-05-10T11:41:13;5.05;;;1.00;;
76167;SDS011;64927;48.214;16.378;2023-05-10T11:43:39;1.23;;;1.00;;
76167;SDS011;64927;48.214;16.378;2023-05-10T11:46:08;1.55;;;1.33;;
76167;SDS011;64927;48.214;16.378;2023-05-10T11:48:35;3.25;;;1.20;;
76167;SDS011;64927;48.214;16.378;2023-05-10T11:51:01;3.40;;;1.20;;
76167;SDS011;64927;48.214;16.378;2023-05-10T11:53:28;1.35;;;1.10;;
76167;SDS011;64927;48.214;16.378;2023-05-10T11:56:02;1.50;;;1.15;;
76167;SDS011;64927;48.214;16.378;2023-05-10T11:58:31;3.05;;;1.30;;
76167;SDS011;64927;48.214;16.378;2023-05-10T12:00:58;3.10;;;1.15;;
76167;SDS011;64927;48.214;16.378;2023-05-10T12:03:25;3.22;;;0.85;;
76167;SDS011;64927;48.214;16.378;2023-05-10T12:05:51;1.90;;;1.30;;
76167;SDS011;64927;48.214;16.378;2023-05-10T12:08:20;1.10;;;1.00;;
76167;SDS011;64927;48.214;16.378;2023-05-10T12:10:47;2.17;;;1.17;;
76167;SDS011;64927;48.214;16.378;2023-05-10T12:13:13;3.00;;;1.27;;
76167;SDS011;64927;48.214;16.378;2023-05-10T12:15:40;1.23;;;0.90;;
76167;SDS011;64927;48.214;16.378;2023-05-10T12:18:10;3.05;;;1.85;;
76167;SDS011;64927;48.214;16.378;2023-05-10T12:20:37;2.20;;;1.92;;
76167;SDS011;64927;48.214;16.378;2023-05-10T12:23:07;2.70;;;1.00;;
76167;SDS011;64927;48.214;16.378;2023-05-10T12:25:34;1.50;;;0.98;;
76167;SDS011;64927;48.214;16.378;2023-05-10T12:28:05;2.80;;;1.05;;
76167;SDS011;64927;48.214;16.378;2023-05-10T12:30:34;4.00;;;1.20;;
76167;SDS011;64927;48.214;16.378;2023-05-10T12:35:45;2.20;;;0.90;;
76167;SDS011;64927;48.214;16.378;2023-05-10T12:38:31;1.67;;;1.00;;
76167;SDS011;64927;48.214;16.378;2023-05-10T12:40:59;2.28;;;1.05;;
76167;SDS011;64927;48.214;16.378;2023-05-10T12:43:26;2.33;;;1.20;;
76167;SDS011;64927;48.214;16.378;2023-05-10T12:45:51;1.63;;;1.20;;
76167;SDS011;64927;48.214;16.378;2023-05-10T12:48:17;2.17;;;1.10;;
76167;SDS011;64927;48.214;16.378;2023-05-10T12:50:43;5.45;;;1.35;;
76167;SDS011;64927;48.214;16.378;2023-05-10T12:53:09;2.05;;;0.90;;
76167;SDS011;64927;48.214;16.378;2023-05-10T12:55:35;1.67;;;1.30;;
76167;SDS011;64927;48.214;16.378;2023-05-10T12:58:00;1.63;;;1.05;;
76167;SDS011;64927;48.214;16.378;2023-05-10T13:00:26;1.45;;;1.20;;
76167;SDS011;64927;48.214;16.378;2023-05-10T13:02:52;4.13;;;1.23;;
76167;SDS011;64927;48.214;16.378;2023-05-10T13:05:18;1.80;;;1.25;;
76167;SDS011;64927;48.214;16.378;2023-05-10T13:07:43;4.13;;;1.40;;
76167;SDS011;64927;48.214;16.378;2023-05-10T13:10:09;1.25;;;1.10;;
76167;SDS011;64927;48.214;16.378;2023-05-10T13:12:35;2.05;;;1.30;;
76167;SDS011;64927;48.214;16.378;2023-05-10T13:15:02;6.43;;;1.70;;
76167;SDS011;64927;48.214;16.378;2023-05-10T13:17:28;2.10;;;1.48;;
76167;SDS011;64927;48.214;16.378;2023-05-10T13:19:54;1.67;;;1.45;;
76167;SDS011;64927;48.214;16.378;2023-05-10T13:22:22;5.90;;;1.60;;
76167;SDS011;64927;48.214;16.378;2023-05-10T13:24:48;2.45;;;1.40;;
76167;SDS011;64927;48.214;16.378;2023-05-10T13:27:13;2.35;;;1.52;;
76167;SDS011;64927;48.214;16.378;2023-05-10T13:29:41;3.00;;;2.03;;
76167;SDS011;64927;48.214;16.378;2023-05-10T13:32:07;2.10;;;1.65;;
76167;SDS011;64927;48.214;16.378;2023-05-10T13:34:37;2.47;;;1.50;;
76167;SDS011;64927;48.214;16.378;2023-05-10T13:37:03;2.58;;;1.08;;
76167;SDS011;64927;48.214;16.378;2023-05-10T13:39:31;3.47;;;1.67;;
76167;SDS011;64927;48.214;16.378;2023-05-10T13:41:59;1.88;;;1.48;;
76167;SDS011;64927;48.214;16.378;2023-05-10T13:44:34;3.15;;;1.40;;
76167;SDS011;64927;48.214;16.378;2023-05-10T13:47:01;1.52;;;1.40;;
76167;SDS011;64927;48.214;16.378;2023-05-10T13:49:26;6.55;;;3.40;;
76167;SDS011;64927;48.214;16.378;2023-05-10T13:51:52;5.82;;;1.55;;
76167;SDS011;64927;48.214;16.378;2023-05-10T13:54:17;1.90;;;1.30;;
76167;SDS011;64927;48.214;16.378;2023-05-10T13:56:45;3.85;;;1.60;;
76167;SDS011;64927;48.214;16.378;2023-05-10T13:59:12;4.50;;;1.42;;
76167;SDS011;64927;48.214;16.378;2023-05-10T14:01:39;4.55;;;1.10;;
76167;SDS011;64927;48.214;16.378;2023-05-10T14:04:07;1.88;;;1.40;;
76167;SDS011;64927;48.214;16.378;2023-05-10T14:06:35;1.50;;;1.40;;
76167;SDS011;64927;48.214;16.378;2023-05-10T14:09:01;2.75;;;1.00;;
76167;SDS011;64927;48.214;16.378;2023-05-10T14:11:28;2.03;;;1.38;;
76167;SDS011;64927;48.214;16.378;2023-05-10T14:13:55;2.20;;;1.83;;
76167;SDS011;64927;48.214;16.378;2023-05-10T14:16:21;9.60;;;1.52;;
76167;SDS011;64927;48.214;16.378;2023-05-10T14:18:47;3.00;;;1.30;;
76167;SDS011;64927;48.214;16.378;2023-05-10T14:21:15;4.00;;;1.25;;
76167;SDS011;64927;48.214;16.378;2023-05-10T14:23:40;3.22;;;1.45;;
76167;SDS011;64927;48.214;16.378;2023-05-10T14:26:06;3.40;;;1.25;;
76167;SDS011;64927;48.214;16.378;2023-05-10T14:28:32;2.10;;;1.38;;
76167;SDS011;64927;48.214;16.378;2023-05-10T14:31:03;2.30;;;1.27;;
76167;SDS011;64927;48.214;16.378;2023-05-10T14:33:28;3.20;;;1.15;;
76167;SDS011;64927;48.214;16.378;2023-05-10T14:35:54;2.97;;;1.23;;
76167;SDS011;64927;48.214;16.378;2023-05-10T14:38:21;1.33;;;1.20;;
76167;SDS011;64927;48.214;16.378;2023-05-10T14:40:47;2.47;;;1.40;;
76167;SDS011;64927;48.214;16.378;2023-05-10T14:43:13;1.40;;;1.02;;
76167;SDS011;64927;48.214;16.378;2023-05-10T14:45:39;2.38;;;1.40;;
76167;SDS011;64927;48.214;16.378;2023-05-10T14:48:07;2.03;;;1.02;;
76167;SDS011;64927;48.214;16.378;2023-05-10T14:50:36;1.38;;;1.10;;
76167;SDS011;64927;48.214;16.378;2023-05-10T14:53:01;1.45;;;1.10;;
76167;SDS011;64927;48.214;16.378;2023-05-10T14:55:27;1.33;;;1.05;;
76167;SDS011;64927;48.214;16.378;2023-05-10T14:57:53;4.07;;;1.10;;
76167;SDS011;64927;48.214;16.378;2023-05-10T15:00:19;1.65;;;1.23;;
76167;SDS011;64927;48.214;16.378;2023-05-10T15:02:45;2.95;;;1.40;;
76167;SDS011;64927;48.214;16.378;2023-05-10T15:05:13;1.50;;;1.08;;
76167;SDS011;64927;48.214;16.378;2023-05-10T15:07:39;3.13;;;1.20;;
76167;SDS011;64927;48.214;16.378;2023-05-10T15:10:05;2.17;;;1.25;;
76167;SDS011;64927;48.214;16.378;2023-05-10T15:12:31;2.22;;;1.00;;
76167;SDS011;64927;48.214;16.378;2023-05-10T15:14:57;1.55;;;1.00;;
76167;SDS011;64927;48.214;16.378;2023-05-10T15:17:22;0.98;;;0.85;;
76167;SDS011;64927;48.214;16.378;2023-05-10T15:19:48;1.42;;;0.95;;
76167;SDS011;64927;48.214;16.378;2023-05-10T15:22:16;1.00;;;0.88;;
76167;SDS011;64927;48.214;16.378;2023-05-10T15:24:42;1.13;;;1.00;;